| time (UTC) | temp C | wind direction | speed KPH | gust KPH | rain 1hr cm | rain 24hr cm | rain mn cm | humidity % | barometer mb |
| 20260507085505 | 12 | 6 | 0.0 | 0.0 | 0.00 | 0.74 | 0.43 | 88 | 1009.6 |
| 20260507084505 | 12 | 6 | 0.0 | 1.6 | 0.00 | 0.74 | 0.43 | 88 | 1009.4 |
| 20260507084005 | 12 | 6 | 0.0 | 0.0 | 0.00 | 0.74 | 0.43 | 87 | 1009.4 |
| 20260507083505 | 12 | 6 | 0.0 | 1.6 | 0.00 | 0.74 | 0.43 | 87 | 1009.4 |
| 20260507083011 | 12 | 6 | 0.0 | 1.6 | 0.00 | 0.74 | 0.43 | 87 | 1009.3 |
| 20260507082505 | 12 | 6 | 0.0 | 3.2 | 0.00 | 0.74 | 0.43 | 86 | 1009.1 |
| 20260507082006 | 12 | 5 | 0.0 | 3.2 | 0.00 | 0.74 | 0.43 | 86 | 1009.0 |
| 20260507081505 | 12 | 5 | 3.2 | 4.8 | 0.00 | 0.74 | 0.43 | 85 | 1008.9 |
| 20260507081006 | 12 | 317 | 4.8 | 12.9 | 0.00 | 0.74 | 0.43 | 85 | 1008.9 |
| 20260507080504 | 12 | 333 | 3.2 | 9.7 | 0.00 | 0.74 | 0.43 | 85 | 1009.0 |
| 20260507080011 | 12 | 7 | 9.7 | 14.5 | 0.00 | 0.74 | 0.43 | 85 | 1009.0 |
| 20260507075505 | 12 | 338 | 6.4 | 19.3 | 0.00 | 0.74 | 0.43 | 85 | 1008.9 |
| 20260507075005 | 12 | 19 | 12.9 | 25.7 | 0.00 | 0.74 | 0.43 | 85 | 1008.7 |
| 20260507074505 | 12 | 8 | 4.8 | 14.5 | 0.00 | 0.74 | 0.43 | 85 | 1008.8 |
| 20260507073505 | 12 | 16 | 4.8 | 14.5 | 0.03 | 0.74 | 0.43 | 85 | 1008.7 |
| 20260507073012 | 12 | 299 | 8.0 | 20.9 | 0.03 | 0.74 | 0.43 | 85 | 1008.6 |
| 20260507072505 | 12 | 333 | 9.7 | 20.9 | 0.03 | 0.74 | 0.43 | 85 | 1008.6 |
| 20260507072006 | 12 | 327 | 8.0 | 19.3 | 0.03 | 0.74 | 0.43 | 85 | 1008.5 |
| 20260507071005 | 12 | 1 | 16.1 | 27.4 | 0.03 | 0.74 | 0.43 | 86 | 1008.7 |
| 20260507070013 | 13 | 34 | 14.5 | 29.0 | 0.03 | 0.74 | 0.43 | 88 | 1008.8 |
| 20260507065505 | 13 | 329 | 3.2 | 22.5 | 0.03 | 0.74 | 0.43 | 89 | 1008.9 |
| 20260507065005 | 13 | 340 | 0.0 | 0.0 | 0.03 | 0.74 | 0.43 | 89 | 1009.0 |
| 20260507064505 | 13 | 340 | 0.0 | 0.0 | 0.03 | 0.74 | 0.43 | 89 | 1008.8 |
| 20260507064006 | 13 | 335 | 3.2 | 4.8 | 0.03 | 0.74 | 0.43 | 89 | 1008.7 |
| 20260507063505 | 13 | 350 | 3.2 | 9.7 | 0.00 | 0.71 | 0.41 | 89 | 1008.4 |
| 20260507063011 | 13 | 12 | 3.2 | 9.7 | 0.00 | 0.71 | 0.41 | 89 | 1008.5 |
| 20260507062506 | 13 | 343 | 3.2 | 8.0 | 0.03 | 0.71 | 0.41 | 89 | 1008.6 |
| 20260507062005 | 13 | 345 | 3.2 | 4.8 | 0.03 | 0.71 | 0.41 | 88 | 1008.6 |
| 20260507061505 | 13 | 350 | 0.0 | 0.0 | 0.05 | 0.71 | 0.41 | 88 | 1008.6 |
| 20260507061006 | 13 | 350 | 1.6 | 3.2 | 0.10 | 0.71 | 0.41 | 88 | 1008.9 |
| 20260507060505 | 13 | 350 | 3.2 | 4.8 | 0.15 | 0.71 | 0.41 | 88 | 1008.6 |
| 20260507055505 | 13 | 345 | 1.6 | 3.2 | 0.28 | 0.71 | 0.41 | 87 | 1008.8 |
| 20260507055005 | 13 | 345 | 1.6 | 4.8 | 0.36 | 0.71 | 0.41 | 87 | 1009.0 |
| 20260507054505 | 14 | 340 | 3.2 | 9.7 | 0.41 | 0.71 | 0.41 | 86 | 1008.6 |
| 20260507054006 | 14 | 335 | 3.2 | 8.0 | 0.41 | 0.71 | 0.41 | 86 | 1008.9 |
| 20260507053505 | 14 | 345 | 0.0 | 3.2 | 0.41 | 0.71 | 0.41 | 85 | 1009.1 |
| 20260507053011 | 14 | 345 | 0.0 | 0.0 | 0.41 | 0.71 | 0.41 | 85 | 1009.2 |
| 20260507052505 | 14 | 345 | 3.2 | 8.0 | 0.38 | 0.69 | 0.38 | 84 | 1009.0 |
| 20260507052005 | 15 | 340 | 3.2 | 8.0 | 0.38 | 0.69 | 0.38 | 84 | 1008.8 |
| 20260507051006 | 15 | 344 | 4.8 | 12.9 | 0.30 | 0.61 | 0.30 | 83 | 1009.0 |
| 20260507045505 | 16 | 341 | 4.8 | 22.5 | 0.13 | 0.43 | 0.13 | 79 | 1009.3 |
| 20260507045006 | 16 | 342 | 6.4 | 16.1 | 0.05 | 0.36 | 0.05 | 76 | 1009.0 |
| 20260507044505 | 16 | 318 | 6.4 | 14.5 | 0.00 | 0.30 | 0.00 | 75 | 1008.6 |
| 20260507044005 | 16 | 312 | 4.8 | 9.7 | 0.00 | 0.30 | 0.00 | 74 | 1008.8 |
| 20260507043505 | 16 | 356 | 8.0 | 20.9 | 0.00 | 0.30 | 0.00 | 74 | 1008.6 |
| 20260507042505 | 16 | 332 | 4.8 | 16.1 | 0.00 | 0.30 | 0.00 | 73 | 1008.7 |
| 20260507041504 | 17 | 344 | 12.9 | 32.2 | 0.00 | 0.30 | 0.00 | 74 | 1008.6 |
| 20260507041005 | 17 | 349 | 9.7 | 24.1 | 0.00 | 0.30 | 0.00 | 75 | 1008.4 |
| 20260507040505 | 17 | 324 | 9.7 | 22.5 | 0.00 | 0.30 | 0.00 | 76 | 1008.3 |
| 20260507040011 | 17 | 337 | 3.2 | 9.7 | 0.00 | 0.30 | 0.00 | 77 | 1007.9 |
| 20260507035005 | 17 | 310 | 3.2 | 9.7 | 0.00 | 0.30 | 0.30 | 77 | 1008.0 |
| 20260507034505 | 17 | 354 | 1.6 | 4.8 | 0.00 | 0.30 | 0.30 | 76 | 1007.8 |
| 20260507034006 | 17 | 350 | 3.2 | 16.1 | 0.00 | 0.30 | 0.30 | 76 | 1008.0 |
| 20260507033504 | 17 | 269 | 3.2 | 8.0 | 0.00 | 0.30 | 0.30 | 76 | 1008.3 |
| 20260507033011 | 17 | 345 | 4.8 | 8.0 | 0.00 | 0.30 | 0.30 | 76 | 1008.4 |
| 20260507032505 | 17 | 330 | 4.8 | 14.5 | 0.00 | 0.30 | 0.30 | 75 | 1008.2 |
| 20260507032005 | 18 | 298 | 1.6 | 8.0 | 0.00 | 0.30 | 0.30 | 75 | 1008.1 |
| 20260507031505 | 18 | 349 | 3.2 | 12.9 | 0.00 | 0.30 | 0.30 | 75 | 1008.2 |
| 20260507030505 | 18 | 327 | 3.2 | 9.7 | 0.00 | 0.30 | 0.30 | 74 | 1008.1 |
| 20260507030011 | 18 | 305 | 1.6 | 9.7 | 0.00 | 0.30 | 0.30 | 74 | 1007.9 |
| 20260507025505 | 18 | 329 | 3.2 | 14.5 | 0.00 | 0.30 | 0.30 | 73 | 1007.8 |
| 20260507025006 | 18 | 310 | 8.0 | 16.1 | 0.00 | 0.30 | 0.30 | 73 | 1007.8 |
| 20260507024505 | 18 | 353 | 4.8 | 8.0 | 0.00 | 0.30 | 0.30 | 73 | 1007.8 |
| 20260507024006 | 18 | 325 | 3.2 | 12.9 | 0.00 | 0.30 | 0.30 | 73 | 1007.8 |
| 20260507023505 | 18 | 320 | 1.6 | 9.7 | 0.00 | 0.30 | 0.30 | 73 | 1007.5 |
| 20260507023012 | 18 | 110 | 4.8 | 16.1 | 0.00 | 0.30 | 0.30 | 73 | 1007.2 |
| 20260507022005 | 19 | 4 | 3.2 | 22.5 | 0.00 | 0.30 | 0.30 | 75 | 1007.4 |
| 20260507021505 | 19 | 332 | 4.8 | 9.7 | 0.00 | 0.30 | 0.30 | 76 | 1007.5 |
| 20260507021005 | 19 | 2 | 4.8 | 11.3 | 0.00 | 0.30 | 0.30 | 77 | 1007.6 |
| 20260507020504 | 19 | 353 | 8.0 | 22.5 | 0.00 | 0.30 | 0.30 | 78 | 1007.5 |
| 20260507015505 | 20 | 354 | 8.0 | 14.5 | 0.00 | 0.30 | 0.30 | 80 | 1007.1 |
| 20260507015005 | 19 | 316 | 1.6 | 4.8 | 0.00 | 0.30 | 0.30 | 80 | 1007.1 |
| 20260507014505 | 19 | 292 | 0.0 | 4.8 | 0.00 | 0.30 | 0.30 | 81 | 1007.3 |
| 20260507013505 | 20 | 304 | 3.2 | 8.0 | 0.00 | 0.30 | 0.30 | 82 | 1007.4 |
| 20260507013011 | 20 | 297 | 3.2 | 9.7 | 0.00 | 0.30 | 0.30 | 81 | 1007.5 |
| 20260507012505 | 20 | 184 | 1.6 | 4.8 | 0.00 | 0.30 | 0.30 | 81 | 1007.4 |
| 20260507012005 | 20 | 217 | 0.0 | 1.6 | 0.00 | 0.30 | 0.30 | 81 | 1007.5 |
| 20260507011505 | 20 | 217 | 0.0 | 1.6 | 0.00 | 0.30 | 0.30 | 81 | 1007.3 |
| 20260507011006 | 20 | 217 | 0.0 | 1.6 | 0.00 | 0.30 | 0.30 | 80 | 1007.2 |
| 20260507010504 | 20 | 217 | 0.0 | 0.0 | 0.00 | 0.30 | 0.30 | 80 | 1007.3 |
| 20260507010011 | 20 | 217 | 0.0 | 1.6 | 0.00 | 0.30 | 0.30 | 80 | 1007.2 |
| 20260507005505 | 20 | 217 | 0.0 | 1.6 | 0.00 | 0.30 | 0.30 | 80 | 1007.0 |
| 20260507005005 | 20 | 217 | 0.0 | 3.2 | 0.00 | 0.30 | 0.30 | 80 | 1007.1 |
| 20260507004505 | 20 | 217 | 3.2 | 3.2 | 0.00 | 0.30 | 0.30 | 80 | 1007.1 |
| 20260507004005 | 20 | 217 | 0.0 | 0.0 | 0.00 | 0.30 | 0.30 | 80 | 1007.0 |
| 20260507003505 | 20 | 217 | 0.0 | 0.0 | 0.00 | 0.30 | 0.30 | 79 | 1006.9 |
| 20260507003011 | 20 | 217 | 1.6 | 4.8 | 0.00 | 0.30 | 0.30 | 79 | 1007.1 |
| 20260507002005 | 20 | 263 | 0.0 | 0.0 | 0.00 | 0.30 | 0.30 | 79 | 1006.9 |
| 20260507001504 | 20 | 263 | 0.0 | 0.0 | 0.00 | 0.30 | 0.30 | 78 | 1006.7 |
| 20260507001005 | 20 | 263 | 0.0 | 3.2 | 0.00 | 0.30 | 0.30 | 78 | 1006.8 |
| 20260507000505 | 20 | 263 | 0.0 | 1.6 | 0.00 | 0.30 | 0.30 | 78 | 1006.9 |
| 20260507000011 | 21 | 235 | 3.2 | 8.0 | 0.00 | 0.30 | 0.30 | 77 | 1006.7 |
| 20260506235505 | 21 | 160 | 1.6 | 4.8 | 0.00 | 0.30 | 0.30 | 77 | 1006.6 |
| 20260506235005 | 21 | 191 | 0.0 | 0.0 | 0.00 | 0.30 | 0.30 | 77 | 1006.7 |
| 20260506234505 | 21 | 191 | 0.0 | 1.6 | 0.00 | 0.30 | 0.30 | 77 | 1006.4 |
| 20260506234005 | 21 | 195 | 0.0 | 1.6 | 0.00 | 0.30 | 0.30 | 77 | 1006.4 |
| 20260506233505 | 21 | 196 | 1.6 | 4.8 | 0.00 | 0.30 | 0.30 | 77 | 1006.4 |
| 20260506233011 | 21 | 205 | 3.2 | 9.7 | 0.00 | 0.30 | 0.30 | 76 | 1006.4 |
| 20260506232504 | 21 | 179 | 0.0 | 9.7 | 0.00 | 0.30 | 0.30 | 75 | 1006.3 |
| 20260506232005 | 21 | 162 | 0.0 | 4.8 | 0.00 | 0.30 | 0.30 | 75 | 1006.2 |
| 20260506231506 | 21 | 170 | 1.6 | 9.7 | 0.00 | 0.30 | 0.30 | 75 | 1006.3 |
| 20260506231005 | 21 | 209 | 0.0 | 8.0 | 0.00 | 0.30 | 0.30 | 75 | 1006.3 |
| 20260506230504 | 21 | 206 | 3.2 | 8.0 | 0.00 | 0.30 | 0.30 | 75 | 1006.2 |
| 20260506230011 | 21 | 115 | 3.2 | 11.3 | 0.00 | 0.30 | 0.30 | 74 | 1006.3 |
| 20260506224505 | 21 | 192 | 3.2 | 8.0 | 0.00 | 0.30 | 0.30 | 74 | 1006.0 |
| 20260506224006 | 21 | 172 | 3.2 | 9.7 | 0.00 | 0.30 | 0.30 | 74 | 1005.9 |
| 20260506223505 | 21 | 223 | 1.6 | 9.7 | 0.00 | 0.30 | 0.30 | 74 | 1006.0 |
| 20260506223012 | 21 | 221 | 0.0 | 8.0 | 0.00 | 0.30 | 0.30 | 74 | 1006.3 |
| 20260506222505 | 21 | 196 | 3.2 | 11.3 | 0.00 | 0.30 | 0.30 | 73 | 1006.3 |
| 20260506222005 | 22 | 282 | 4.8 | 11.3 | 0.00 | 0.30 | 0.30 | 73 | 1006.2 |
| 20260506221006 | 22 | 225 | 3.2 | 11.3 | 0.00 | 0.30 | 0.30 | 72 | 1006.3 |
| 20260506220505 | 22 | 194 | 1.6 | 8.0 | 0.00 | 0.30 | 0.30 | 72 | 1006.3 |
| 20260506220011 | 22 | 144 | 4.8 | 11.3 | 0.00 | 0.30 | 0.30 | 72 | 1006.2 |
| 20260506215504 | 22 | 179 | 4.8 | 14.5 | 0.00 | 0.30 | 0.30 | 71 | 1006.2 |
| 20260506215006 | 22 | 218 | 4.8 | 11.3 | 0.00 | 0.30 | 0.30 | 71 | 1006.2 |
| 20260506214505 | 22 | 136 | 3.2 | 16.1 | 0.00 | 0.30 | 0.30 | 71 | 1006.2 |
| 20260506214005 | 22 | 178 | 6.4 | 11.3 | 0.00 | 0.30 | 0.30 | 72 | 1006.1 |
| 20260506213505 | 22 | 261 | 4.8 | 11.3 | 0.00 | 0.30 | 0.30 | 72 | 1005.9 |
| 20260506213011 | 22 | 247 | 6.4 | 12.9 | 0.00 | 0.30 | 0.30 | 72 | 1006.0 |
| 20260506212504 | 22 | 212 | 8.0 | 12.9 | 0.00 | 0.30 | 0.30 | 72 | 1005.9 |
| 20260506212005 | 22 | 138 | 8.0 | 16.1 | 0.00 | 0.30 | 0.30 | 71 | 1005.9 |
| 20260506211504 | 22 | 187 | 4.8 | 16.1 | 0.00 | 0.30 | 0.30 | 72 | 1005.9 |
| 20260506211006 | 22 | 196 | 1.6 | 14.5 | 0.00 | 0.30 | 0.30 | 72 | 1005.9 |
| 20260506210011 | 22 | 264 | 4.8 | 12.9 | 0.00 | 0.30 | 0.30 | 72 | 1005.7 |
| 20260506205005 | 22 | 220 | 4.8 | 16.1 | 0.00 | 0.30 | 0.30 | 72 | 1005.7 |
| 20260506204505 | 22 | 251 | 6.4 | 12.9 | 0.00 | 0.30 | 0.30 | 71 | 1005.5 |
| 20260506204005 | 22 | 265 | 3.2 | 16.1 | 0.00 | 0.30 | 0.30 | 71 | 1005.7 |
| 20260506203505 | 22 | 163 | 9.7 | 16.1 | 0.00 | 0.30 | 0.30 | 71 | 1005.7 |
| 20260506203012 | 22 | 42 | 3.2 | 9.7 | 0.00 | 0.30 | 0.30 | 72 | 1005.7 |
| 20260506202005 | 22 | 238 | 6.4 | 19.3 | 0.00 | 0.30 | 0.30 | 72 | 1005.6 |
| 20260506201505 | 22 | 143 | 4.8 | 12.9 | 0.00 | 0.30 | 0.30 | 72 | 1005.6 |
| 20260506201006 | 22 | 146 | 9.7 | 19.3 | 0.00 | 0.30 | 0.30 | 71 | 1005.7 |
| 20260506200504 | 22 | 151 | 8.0 | 14.5 | 0.00 | 0.30 | 0.30 | 71 | 1005.7 |
| 20260506200011 | 22 | 148 | 9.7 | 14.5 | 0.00 | 0.30 | 0.30 | 71 | 1005.7 |
| 20260506195505 | 22 | 146 | 4.8 | 19.3 | 0.00 | 0.30 | 0.30 | 72 | 1005.7 |
| 20260506194505 | 22 | 176 | 6.4 | 20.9 | 0.00 | 0.30 | 0.30 | 71 | 1005.7 |
| 20260506194005 | 22 | 108 | 6.4 | 16.1 | 0.00 | 0.30 | 0.30 | 73 | 1005.8 |
| 20260506193505 | 22 | 153 | 11.3 | 19.3 | 0.00 | 0.30 | 0.30 | 72 | 1005.9 |
| 20260506193012 | 22 | 142 | 1.6 | 16.1 | 0.00 | 0.30 | 0.30 | 73 | 1005.8 |
| 20260506192505 | 21 | 167 | 9.7 | 19.3 | 0.00 | 0.30 | 0.30 | 73 | 1005.9 |
| 20260506191505 | 21 | 318 | 3.2 | 11.3 | 0.00 | 0.30 | 0.30 | 75 | 1006.0 |
| 20260506191004 | 21 | 163 | 9.7 | 25.7 | 0.00 | 0.30 | 0.30 | 75 | 1006.1 |
| 20260506190505 | 21 | 162 | 8.0 | 16.1 | 0.00 | 0.30 | 0.30 | 75 | 1006.2 |
| 20260506190011 | 21 | 246 | 9.7 | 27.4 | 0.00 | 0.30 | 0.30 | 76 | 1006.2 |
| 20260506185505 | 20 | 175 | 6.4 | 16.1 | 0.00 | 0.30 | 0.30 | 76 | 1006.3 |
| 20260506184505 | 20 | 160 | 3.2 | 9.7 | 0.00 | 0.30 | 0.30 | 78 | 1006.5 |
| 20260506184005 | 20 | 251 | 11.3 | 22.5 | 0.00 | 0.30 | 0.30 | 77 | 1006.5 |
| 20260506183505 | 20 | 205 | 4.8 | 20.9 | 0.00 | 0.30 | 0.30 | 77 | 1006.5 |
| 20260506183011 | 20 | 189 | 6.4 | 19.3 | 0.00 | 0.30 | 0.30 | 78 | 1006.5 |
| 20260506182505 | 20 | 156 | 12.9 | 20.9 | 0.00 | 0.30 | 0.30 | 78 | 1006.6 |
| 20260506182006 | 20 | 228 | 4.8 | 16.1 | 0.00 | 0.30 | 0.30 | 78 | 1006.7 |
| 20260506181505 | 19 | 215 | 8.0 | 19.3 | 0.00 | 0.30 | 0.30 | 79 | 1006.7 |
| 20260506181005 | 19 | 174 | 6.4 | 19.3 | 0.00 | 0.30 | 0.30 | 79 | 1006.7 |
| 20260506180011 | 19 | 167 | 9.7 | 19.3 | 0.00 | 0.30 | 0.30 | 80 | 1006.8 |
| 20260506174505 | 19 | 212 | 11.3 | 19.3 | 0.00 | 0.30 | 0.30 | 81 | 1006.9 |
| 20260506174005 | 19 | 196 | 16.1 | 37.0 | 0.00 | 0.30 | 0.30 | 81 | 1006.7 |
| 20260506173505 | 18 | 120 | 6.4 | 32.2 | 0.00 | 0.30 | 0.30 | 82 | 1006.7 |
| 20260506173011 | 18 | 95 | 1.6 | 11.3 | 0.00 | 0.30 | 0.30 | 84 | 1006.8 |
| 20260506172504 | 18 | 331 | 4.8 | 14.5 | 0.00 | 0.30 | 0.30 | 84 | 1006.9 |
| 20260506172005 | 18 | 146 | 3.2 | 8.0 | 0.00 | 0.30 | 0.30 | 84 | 1006.9 |
| 20260506171505 | 18 | 201 | 11.3 | 19.3 | 0.00 | 0.30 | 0.30 | 84 | 1006.9 |
| 20260506171005 | 18 | 139 | 8.0 | 20.9 | 0.00 | 0.30 | 0.30 | 85 | 1006.9 |
| 20260506170504 | 18 | 154 | 3.2 | 19.3 | 0.00 | 0.30 | 0.30 | 85 | 1007.0 |
| 20260506170011 | 18 | 174 | 9.7 | 22.5 | 0.00 | 0.30 | 0.30 | 86 | 1007.0 |
| 20260506165505 | 17 | 210 | 8.0 | 19.3 | 0.00 | 0.30 | 0.30 | 86 | 1007.0 |
| 20260506165005 | 17 | 139 | 4.8 | 20.9 | 0.00 | 0.30 | 0.30 | 87 | 1007.1 |
| 20260506164505 | 17 | 223 | 8.0 | 27.4 | 0.00 | 0.30 | 0.30 | 87 | 1007.2 |
| 20260506164005 | 17 | 114 | 12.9 | 25.7 | 0.00 | 0.30 | 0.30 | 87 | 1007.1 |
| 20260506163505 | 17 | 159 | 14.5 | 35.4 | 0.00 | 0.30 | 0.30 | 87 | 1007.1 |
| 20260506163011 | 17 | 197 | 8.0 | 14.5 | 0.00 | 0.30 | 0.30 | 88 | 1007.1 |
| 20260506162505 | 17 | 159 | 8.0 | 20.9 | 0.00 | 0.30 | 0.30 | 88 | 1007.1 |
| 20260506162005 | 17 | 150 | 8.0 | 20.9 | 0.00 | 0.30 | 0.30 | 88 | 1007.1 |
| 20260506161505 | 17 | 153 | 8.0 | 20.9 | 0.00 | 0.30 | 0.30 | 88 | 1007.3 |
| 20260506161005 | 17 | 168 | 9.7 | 20.9 | 0.03 | 0.30 | 0.30 | 88 | 1007.2 |
| 20260506160505 | 17 | 160 | 9.7 | 20.9 | 0.03 | 0.30 | 0.30 | 89 | 1007.5 |
| 20260506160011 | 17 | 180 | 11.3 | 22.5 | 0.03 | 0.30 | 0.30 | 89 | 1007.3 |
| 20260506155005 | 17 | 160 | 6.4 | 16.1 | 0.05 | 0.30 | 0.30 | 89 | 1007.3 |
| 20260506154505 | 17 | 144 | 11.3 | 20.9 | 0.08 | 0.30 | 0.30 | 89 | 1007.6 |
| 20260506154006 | 17 | 169 | 4.8 | 20.9 | 0.08 | 0.30 | 0.30 | 89 | 1007.4 |
| 20260506153505 | 17 | 138 | 11.3 | 19.3 | 0.10 | 0.30 | 0.30 | 89 | 1007.3 |
| 20260506152504 | 17 | 114 | 6.4 | 16.1 | 0.10 | 0.30 | 0.30 | 89 | 1007.4 |
| 20260506152006 | 17 | 206 | 3.2 | 9.7 | 0.13 | 0.30 | 0.30 | 89 | 1007.7 |
| 20260506151005 | 16 | 219 | 4.8 | 14.5 | 0.13 | 0.28 | 0.28 | 89 | 1007.9 |
| 20260506150505 | 16 | 171 | 6.4 | 16.1 | 0.13 | 0.28 | 0.28 | 88 | 1007.9 |
| 20260506150011 | 16 | 134 | 4.8 | 25.7 | 0.15 | 0.28 | 0.28 | 88 | 1008.1 |
| 20260506145005 | 16 | 129 | 6.4 | 12.9 | 0.15 | 0.25 | 0.25 | 88 | 1008.1 |
| 20260506144505 | 16 | 180 | 9.7 | 20.9 | 0.13 | 0.23 | 0.23 | 88 | 1008.1 |
| 20260506144005 | 16 | 148 | 6.4 | 16.1 | 0.15 | 0.23 | 0.23 | 87 | 1008.1 |
| 20260506143505 | 17 | 139 | 6.4 | 16.1 | 0.13 | 0.20 | 0.20 | 87 | 1007.8 |
| 20260506143012 | 17 | 135 | 8.0 | 12.9 | 0.13 | 0.20 | 0.20 | 87 | 1008.0 |
| 20260506142505 | 17 | 173 | 4.8 | 12.9 | 0.15 | 0.20 | 0.20 | 87 | 1008.1 |
| 20260506141504 | 17 | 175 | 4.8 | 14.5 | 0.15 | 0.18 | 0.18 | 86 | 1007.9 |
| 20260506141005 | 17 | 145 | 3.2 | 14.5 | 0.13 | 0.15 | 0.15 | 86 | 1007.9 |
| 20260506140505 | 17 | 166 | 6.4 | 14.5 | 0.13 | 0.15 | 0.15 | 85 | 1008.0 |
| 20260506140011 | 17 | 210 | 4.8 | 14.5 | 0.10 | 0.13 | 0.13 | 85 | 1008.0 |
| 20260506135505 | 17 | 154 | 8.0 | 24.1 | 0.13 | 0.13 | 0.13 | 85 | 1008.2 |
| 20260506135005 | 17 | 143 | 4.8 | 11.3 | 0.10 | 0.10 | 0.10 | 84 | 1008.2 |
| 20260506134505 | 17 | 177 | 3.2 | 16.1 | 0.10 | 0.10 | 0.10 | 84 | 1008.5 |
| 20260506134005 | 17 | 184 | 8.0 | 12.9 | 0.08 | 0.08 | 0.08 | 83 | 1008.7 |
| 20260506133505 | 17 | 238 | 6.4 | 19.3 | 0.08 | 0.08 | 0.08 | 83 | 1008.6 |
| 20260506133012 | 17 | 210 | 3.2 | 16.1 | 0.08 | 0.08 | 0.08 | 82 | 1008.4 |
| 20260506132504 | 17 | 134 | 4.8 | 12.9 | 0.05 | 0.05 | 0.05 | 82 | 1008.4 |
| 20260506132005 | 17 | 127 | 3.2 | 12.9 | 0.05 | 0.05 | 0.05 | 81 | 1008.2 |
| 20260506131505 | 18 | 181 | 4.8 | 19.3 | 0.03 | 0.03 | 0.03 | 80 | 1008.1 |
| 20260506131005 | 18 | 165 | 3.2 | 9.7 | 0.03 | 0.03 | 0.03 | 80 | 1008.0 |
| 20260506130505 | 18 | 169 | 6.4 | 14.5 | 0.03 | 0.03 | 0.03 | 79 | 1008.0 |
| 20260506130010 | 18 | 184 | 1.6 | 4.8 | 0.03 | 0.03 | 0.03 | 79 | 1007.9 |
| 20260506125504 | 18 | 185 | 1.6 | 16.1 | 0.00 | 0.00 | 0.00 | 78 | 1007.7 |
| 20260506125005 | 18 | 182 | 8.0 | 16.1 | 0.00 | 0.00 | 0.00 | 78 | 1007.7 |
| 20260506124505 | 18 | 163 | 3.2 | 16.1 | 0.00 | 0.00 | 0.00 | 77 | 1007.7 |
| 20260506124005 | 18 | 126 | 4.8 | 12.9 | 0.00 | 0.00 | 0.00 | 77 | 1007.9 |
| 20260506123506 | 18 | 172 | 4.8 | 8.0 | 0.00 | 0.00 | 0.00 | 77 | 1007.9 |
| 20260506123010 | 18 | 139 | 4.8 | 11.3 | 0.00 | 0.00 | 0.00 | 76 | 1007.9 |
| 20260506122505 | 18 | 259 | 3.2 | 9.7 | 0.00 | 0.00 | 0.00 | 76 | 1008.2 |
| 20260506122005 | 18 | 243 | 6.4 | 16.1 | 0.00 | 0.00 | 0.00 | 75 | 1008.3 |
| 20260506121505 | 18 | 137 | 3.2 | 14.5 | 0.00 | 0.00 | 0.00 | 75 | 1008.4 |
| 20260506121005 | 18 | 214 | 8.0 | 27.4 | 0.00 | 0.00 | 0.00 | 74 | 1008.3 |
| 20260506120011 | 18 | 207 | 4.8 | 14.5 | 0.00 | 0.00 | 0.00 | 72 | 1008.2 |
| 20260506115505 | 19 | 171 | 9.7 | 20.9 | 0.00 | 0.00 | 0.00 | 72 | 1008.1 |
| 20260506115005 | 19 | 209 | 11.3 | 27.4 | 0.00 | 0.00 | 0.00 | 71 | 1008.0 |
| 20260506114005 | 19 | 231 | 6.4 | 12.9 | 0.00 | 0.00 | 0.00 | 71 | 1007.8 |
| 20260506113505 | 19 | 161 | 6.4 | 16.1 | 0.00 | 0.00 | 0.00 | 70 | 1007.8 |
| 20260506113011 | 19 | 188 | 12.9 | 29.0 | 0.00 | 0.00 | 0.00 | 70 | 1007.7 |
| 20260506112504 | 19 | 141 | 3.2 | 14.5 | 0.00 | 0.00 | 0.00 | 71 | 1007.6 |
| 20260506112005 | 19 | 159 | 4.8 | 12.9 | 0.00 | 0.00 | 0.00 | 71 | 1007.6 |
| 20260506111504 | 19 | 173 | 8.0 | 19.3 | 0.00 | 0.00 | 0.00 | 71 | 1007.7 |
| 20260506111005 | 18 | 144 | 8.0 | 16.1 | 0.00 | 0.00 | 0.00 | 71 | 1007.6 |
| 20260506110505 | 18 | 181 | 8.0 | 14.5 | 0.00 | 0.00 | 0.00 | 71 | 1007.5 |
| 20260506110011 | 18 | 138 | 4.8 | 9.7 | 0.00 | 0.00 | 0.00 | 71 | 1007.4 |
| 20260506105504 | 18 | 185 | 4.8 | 11.3 | 0.00 | 0.00 | 0.00 | 71 | 1007.4 |
| 20260506105005 | 18 | 168 | 9.7 | 16.1 | 0.00 | 0.00 | 0.00 | 71 | 1007.4 |
| 20260506104005 | 18 | 147 | 8.0 | 22.5 | 0.00 | 0.00 | 0.00 | 70 | 1007.3 |
| 20260506103505 | 18 | 180 | 6.4 | 16.1 | 0.00 | 0.00 | 0.00 | 70 | 1007.3 |
| 20260506102504 | 18 | 150 | 8.0 | 16.1 | 0.00 | 0.00 | 0.00 | 70 | 1007.2 |
| 20260506102005 | 18 | 156 | 3.2 | 27.4 | 0.00 | 0.00 | 0.00 | 70 | 1007.4 |
| 20260506101504 | 18 | 203 | 8.0 | 14.5 | 0.00 | 0.00 | 0.00 | 70 | 1007.3 |
| 20260506101005 | 18 | 315 | 3.2 | 11.3 | 0.00 | 0.00 | 0.00 | 70 | 1007.2 |
| 20260506100504 | 18 | 156 | 6.4 | 16.1 | 0.00 | 0.00 | 0.00 | 70 | 1007.2 |
| 20260506100010 | 18 | 150 | 4.8 | 16.1 | 0.00 | 0.00 | 0.00 | 70 | 1007.2 |
| 20260506095006 | 19 | 182 | 8.0 | 16.1 | 0.00 | 0.00 | 0.00 | 70 | 1007.3 |
| 20260506094505 | 19 | 175 | 6.4 | 16.1 | 0.00 | 0.00 | 0.00 | 70 | 1007.4 |
| 20260506093504 | 19 | 142 | 8.0 | 16.1 | 0.00 | 0.00 | 0.00 | 69 | 1007.4 |
| 20260506093009 | 19 | 189 | 9.7 | 16.1 | 0.00 | 0.00 | 0.00 | 69 | 1007.3 |
| 20260506092004 | 19 | 143 | 8.0 | 20.9 | 0.00 | 0.00 | 0.00 | 69 | 1007.3 |
| 20260506091504 | 19 | 166 | 8.0 | 19.3 | 0.00 | 0.00 | 0.00 | 69 | 1007.4 |
| 20260506091005 | 19 | 185 | 6.4 | 14.5 | 0.00 | 0.00 | 0.00 | 68 | 1007.5 |
| 20260506090505 | 19 | 186 | 8.0 | 20.9 | 0.00 | 0.00 | 0.00 | 68 | 1007.5 |
| 20260506090011 | 20 | 180 | 4.8 | 14.5 | 0.00 | 0.00 | 0.00 | 67 | 1007.6 |